createdAt,value
2017-11-10T00:01:11.051Z,22.40
2017-11-10T00:03:38.919Z,21.83
2017-11-10T00:06:06.789Z,22.42
2017-11-10T00:08:34.656Z,22.77
2017-11-10T00:11:02.523Z,25.50
2017-11-10T00:13:30.387Z,23.15
2017-11-10T00:15:58.259Z,22.60
2017-11-10T00:18:26.127Z,25.70
2017-11-10T00:20:53.991Z,24.92
2017-11-10T00:23:21.857Z,26.30
2017-11-10T00:25:49.726Z,27.85
2017-11-10T00:28:17.592Z,25.70
2017-11-10T00:30:45.458Z,22.85
2017-11-10T00:33:13.326Z,24.37
2017-11-10T00:35:41.195Z,25.58
2017-11-10T00:38:09.060Z,22.10
2017-11-10T00:40:36.927Z,23.08
2017-11-10T00:43:04.794Z,23.15
2017-11-10T00:45:32.662Z,22.83
2017-11-10T00:48:00.530Z,23.75
2017-11-10T00:50:28.398Z,23.62
2017-11-10T00:52:56.264Z,24.35
2017-11-10T00:55:24.132Z,23.92
2017-11-10T00:57:52.000Z,23.55
2017-11-10T01:00:19.871Z,22.55
2017-11-10T01:02:47.733Z,24.50
2017-11-10T01:05:15.601Z,22.20
2017-11-10T01:07:43.468Z,24.50
2017-11-10T01:10:11.336Z,23.73
2017-11-10T01:12:39.203Z,26.80
2017-11-10T01:15:07.070Z,23.65
2017-11-10T01:17:34.937Z,23.05
2017-11-10T01:20:02.804Z,23.02
2017-11-10T01:22:30.673Z,23.17
2017-11-10T01:24:58.540Z,21.90
2017-11-10T01:27:26.406Z,24.00
2017-11-10T01:29:54.275Z,23.83
2017-11-10T01:32:22.141Z,23.92
2017-11-10T01:34:50.009Z,24.75
2017-11-10T01:37:17.876Z,24.33
2017-11-10T01:39:45.743Z,23.75
2017-11-10T01:42:13.610Z,23.95
2017-11-10T01:44:41.479Z,23.33
2017-11-10T01:47:09.365Z,23.27
2017-11-10T01:49:40.081Z,24.17
2017-11-10T01:52:07.878Z,22.13
2017-11-10T01:54:36.532Z,22.08
2017-11-10T01:57:04.399Z,25.77
2017-11-10T01:59:32.268Z,25.85
2017-11-10T02:02:00.133Z,24.58
2017-11-10T02:04:28.001Z,23.80
2017-11-10T02:06:55.874Z,24.12
2017-11-10T02:09:23.737Z,23.65
2017-11-10T02:11:51.603Z,24.25
2017-11-10T02:14:19.470Z,24.02
2017-11-10T02:16:47.337Z,25.10
2017-11-10T02:19:15.216Z,23.83
2017-11-10T02:21:43.891Z,23.15
2017-11-10T02:24:11.752Z,24.08
2017-11-10T02:26:39.626Z,22.08
2017-11-10T02:29:07.514Z,19.20
2017-11-10T02:31:35.463Z,21.70
2017-11-10T02:34:03.432Z,19.65
2017-11-10T02:36:31.230Z,20.52
2017-11-10T02:38:59.884Z,20.55
2017-11-10T02:41:27.752Z,21.33
2017-11-10T02:43:55.619Z,21.52
2017-11-10T02:46:23.486Z,19.55
2017-11-10T02:48:51.354Z,21.83
2017-11-10T02:51:19.220Z,21.37
2017-11-10T02:53:47.088Z,19.87
2017-11-10T02:56:14.955Z,20.95
2017-11-10T02:58:42.823Z,21.60
2017-11-10T03:01:10.692Z,20.33
2017-11-10T03:03:38.557Z,22.37
2017-11-10T03:06:06.425Z,21.20
2017-11-10T03:08:34.292Z,22.35
2017-11-10T03:11:02.159Z,22.58
2017-11-10T03:13:30.026Z,20.55
2017-11-10T03:15:57.995Z,22.45
2017-11-10T03:18:25.863Z,21.00
2017-11-10T03:20:53.731Z,23.10
2017-11-10T03:23:21.603Z,21.50
2017-11-10T03:25:49.401Z,20.85
2017-11-10T03:28:18.465Z,20.37
2017-11-10T03:30:46.328Z,20.48
2017-11-10T03:33:14.196Z,21.65
2017-11-10T03:35:42.060Z,20.08
2017-11-10T03:38:09.937Z,19.10
2017-11-10T03:40:37.800Z,19.83
2017-11-10T03:43:05.664Z,21.15
2017-11-10T03:45:33.535Z,22.13
2017-11-10T03:48:01.397Z,22.00
2017-11-10T03:50:29.265Z,22.20
2017-11-10T03:52:57.131Z,22.33
2017-11-10T03:55:24.931Z,22.58
2017-11-10T03:57:53.584Z,25.33
2017-11-10T04:00:21.450Z,24.25
2017-11-10T04:02:49.318Z,21.87
2017-11-10T04:05:17.117Z,21.75
2017-11-10T04:07:45.772Z,23.05
2017-11-10T04:10:13.638Z,23.27
2017-11-10T04:12:41.504Z,21.77
2017-11-10T04:15:09.371Z,22.50
2017-11-10T04:17:37.238Z,23.25
2017-11-10T04:20:05.106Z,24.05
2017-11-10T04:22:32.966Z,24.23
2017-11-10T04:25:00.841Z,23.50
2017-11-10T04:27:28.709Z,25.37
2017-11-10T04:29:56.576Z,25.20
2017-11-10T04:32:24.444Z,28.23
2017-11-10T04:34:52.309Z,27.30
2017-11-10T04:37:20.176Z,27.20
2017-11-10T04:39:48.044Z,27.62
2017-11-10T04:42:15.912Z,24.37
2017-11-10T04:44:43.778Z,28.67
2017-11-10T04:47:11.646Z,27.05
2017-11-10T04:49:39.514Z,25.85
2017-11-10T04:52:07.381Z,26.65
2017-11-10T04:54:35.249Z,25.70
2017-11-10T04:57:03.116Z,28.77
2017-11-10T04:59:30.983Z,28.92
2017-11-10T05:01:58.851Z,26.83
2017-11-10T05:04:26.719Z,28.35
2017-11-10T05:06:54.586Z,30.00
2017-11-10T05:09:22.452Z,27.65
2017-11-10T05:11:50.326Z,28.05
2017-11-10T05:14:18.189Z,28.27
2017-11-10T05:16:48.440Z,25.48
2017-11-10T05:19:17.103Z,26.10
2017-11-10T05:21:45.885Z,25.95
2017-11-10T05:24:13.751Z,28.30
2017-11-10T05:26:41.619Z,24.23
2017-11-10T05:29:09.486Z,24.73
2017-11-10T05:31:37.457Z,24.45
2017-11-10T05:34:05.426Z,25.85
2017-11-10T05:36:33.396Z,24.15
2017-11-10T05:39:02.185Z,25.37
2017-11-10T05:41:30.061Z,27.02
2017-11-10T05:43:57.920Z,25.05
2017-11-10T05:46:25.792Z,23.38
2017-11-10T05:48:53.657Z,26.50
2017-11-10T05:51:21.522Z,26.17
2017-11-10T05:53:49.395Z,25.98
2017-11-10T05:56:17.256Z,25.50
2017-11-10T05:58:45.124Z,26.10
2017-11-10T06:01:12.997Z,25.30
2017-11-10T06:03:40.960Z,25.83
2017-11-10T06:06:08.828Z,22.83
2017-11-10T06:08:36.696Z,26.42
2017-11-10T06:11:04.562Z,27.95
2017-11-10T06:13:32.430Z,27.17
2017-11-10T06:16:00.297Z,27.50
2017-11-10T06:18:28.165Z,26.80
2017-11-10T06:20:56.031Z,25.70
2017-11-10T06:23:23.899Z,27.17
2017-11-10T06:25:51.766Z,26.87
2017-11-10T06:28:19.633Z,29.23
2017-11-10T06:30:47.501Z,26.02
2017-11-10T06:33:15.368Z,27.52
2017-11-10T06:35:43.231Z,27.65
2017-11-10T06:38:11.121Z,26.15
2017-11-10T06:40:38.978Z,28.20
2017-11-10T06:43:06.844Z,26.92
2017-11-10T06:45:34.709Z,27.15
2017-11-10T06:48:02.579Z,27.73
2017-11-10T06:50:30.448Z,30.12
2017-11-10T06:52:58.314Z,29.65
2017-11-10T06:55:26.180Z,30.15
2017-11-10T06:57:54.144Z,29.45
2017-11-10T07:00:22.014Z,28.45
2017-11-10T07:02:49.880Z,30.45
2017-11-10T07:05:17.748Z,27.35
2017-11-10T07:07:45.615Z,27.80
2017-11-10T07:10:13.481Z,28.95
2017-11-10T07:12:41.450Z,27.75
2017-11-10T07:15:09.317Z,27.60
2017-11-10T07:17:37.184Z,29.75
2017-11-10T07:20:05.052Z,28.17
2017-11-10T07:22:32.919Z,29.75
2017-11-10T07:25:00.794Z,26.33
2017-11-10T07:27:28.657Z,27.20
2017-11-10T07:29:56.521Z,27.35
2017-11-10T07:32:24.314Z,28.87
2017-11-10T07:34:52.153Z,28.05
2017-11-10T07:37:20.020Z,27.05
2017-11-10T07:39:47.888Z,26.10
2017-11-10T07:42:15.754Z,29.65
2017-11-10T07:44:43.623Z,26.02
2017-11-10T07:47:11.490Z,26.95
2017-11-10T07:49:39.359Z,27.75
2017-11-10T07:52:07.225Z,24.92
2017-11-10T07:54:35.091Z,24.50
2017-11-10T07:57:02.959Z,25.70
2017-11-10T07:59:30.827Z,22.70
2017-11-10T08:01:58.696Z,25.33
2017-11-10T08:04:26.560Z,25.55
2017-11-10T08:06:54.430Z,24.25
2017-11-10T08:09:22.296Z,23.02
2017-11-10T08:11:50.163Z,23.58
2017-11-10T08:14:18.031Z,22.42
2017-11-10T08:16:45.897Z,22.48
2017-11-10T08:19:13.766Z,20.35
2017-11-10T08:21:41.632Z,21.48
2017-11-10T08:24:09.502Z,19.55
2017-11-10T08:26:37.367Z,18.30
2017-11-10T08:29:05.235Z,19.92
2017-11-10T08:31:33.103Z,18.48
2017-11-10T08:34:00.969Z,17.95
2017-11-10T08:36:28.836Z,19.50
2017-11-10T08:38:56.703Z,18.58
2017-11-10T08:41:24.571Z,17.27
2017-11-10T08:43:52.439Z,18.10
2017-11-10T08:46:20.306Z,17.58
2017-11-10T08:48:48.172Z,18.25
2017-11-10T08:51:16.040Z,19.70
2017-11-10T08:53:43.911Z,16.42
2017-11-10T08:56:11.775Z,16.92
2017-11-10T08:58:39.642Z,17.27
2017-11-10T09:01:07.513Z,17.60
2017-11-10T09:03:35.383Z,17.60
2017-11-10T09:06:03.243Z,17.60
2017-11-10T09:08:31.111Z,16.20
2017-11-10T09:10:58.979Z,16.92
2017-11-10T09:13:26.847Z,15.75
2017-11-10T09:15:54.713Z,16.40
2017-11-10T09:18:22.581Z,17.80
2017-11-10T09:20:50.453Z,15.55
2017-11-10T09:23:18.315Z,17.05
2017-11-10T09:25:46.284Z,17.30
2017-11-10T09:28:18.760Z,16.85
2017-11-10T09:31:02.295Z,16.15
2017-11-10T09:33:32.721Z,16.40
2017-11-10T09:36:19.226Z,17.55
2017-11-10T09:38:47.918Z,16.80
2017-11-10T09:41:33.496Z,17.58
2017-11-10T09:44:07.032Z,17.70
2017-11-10T09:46:35.785Z,18.00
2017-11-10T09:49:22.493Z,16.87
2017-11-10T09:52:11.045Z,15.77
2017-11-10T09:54:43.763Z,18.55
2017-11-10T09:57:18.152Z,16.90
2017-11-10T09:59:49.600Z,17.25
2017-11-10T10:02:32.321Z,17.70
2017-11-10T10:05:10.128Z,16.95
2017-11-10T10:07:55.089Z,17.73
2017-11-10T10:10:33.606Z,17.40
2017-11-10T10:13:06.182Z,14.43
2017-11-10T10:15:39.781Z,18.42
2017-11-10T10:18:23.418Z,15.20
2017-11-10T10:21:06.847Z,14.35
2017-11-10T10:23:34.717Z,13.43
2017-11-10T10:26:02.583Z,13.02
2017-11-10T10:28:30.453Z,13.77
2017-11-10T10:30:58.321Z,11.25
2017-11-10T10:33:26.185Z,12.90
2017-11-10T10:35:54.052Z,13.43
2017-11-10T10:38:21.929Z,11.80
2017-11-10T10:40:49.786Z,12.00
2017-11-10T10:43:17.670Z,12.52
2017-11-10T10:45:45.623Z,12.27
2017-11-10T10:48:13.490Z,12.13
2017-11-10T10:50:41.360Z,12.27
2017-11-10T10:53:09.225Z,12.50
2017-11-10T10:55:37.093Z,11.45
2017-11-10T10:58:04.960Z,13.82
2017-11-10T11:00:32.829Z,12.80
2017-11-10T11:03:00.694Z,12.27
2017-11-10T11:05:28.562Z,12.95
2017-11-10T11:07:56.437Z,11.95
2017-11-10T11:10:24.399Z,13.30
2017-11-10T11:12:52.265Z,11.27
2017-11-10T11:15:20.132Z,13.13
2017-11-10T11:17:48.000Z,12.10
2017-11-10T11:20:15.867Z,12.80
2017-11-10T11:22:43.743Z,12.10
2017-11-10T11:25:11.704Z,10.95
2017-11-10T11:27:39.574Z,10.18
2017-11-10T11:30:07.440Z,10.93
2017-11-10T11:32:35.307Z,10.80
2017-11-10T11:35:03.173Z,10.50
2017-11-10T11:37:31.042Z,11.00
2017-11-10T11:39:58.909Z,10.60
2017-11-10T11:42:26.776Z,10.30
2017-11-10T11:44:54.644Z,9.90
2017-11-10T11:47:22.512Z,10.10
2017-11-10T11:49:50.309Z,8.90
2017-11-10T11:52:18.962Z,9.45
2017-11-10T11:54:46.829Z,8.93
2017-11-10T11:57:14.696Z,9.15
2017-11-10T11:59:42.670Z,8.93
2017-11-10T12:02:10.537Z,9.80
2017-11-10T12:04:38.401Z,8.18
2017-11-10T12:07:06.267Z,8.75
2017-11-10T12:09:34.135Z,8.13
2017-11-10T12:12:02.002Z,6.93
2017-11-10T12:14:29.870Z,6.75
2017-11-10T12:16:57.737Z,6.65
2017-11-10T12:19:25.605Z,6.25
2017-11-10T12:21:53.476Z,6.65
2017-11-10T12:24:21.339Z,6.85
2017-11-10T12:26:49.207Z,6.65
2017-11-10T12:29:17.074Z,6.43
2017-11-10T12:31:44.944Z,5.85
2017-11-10T12:34:12.808Z,5.78
2017-11-10T12:36:40.676Z,5.70
2017-11-10T12:39:09.369Z,4.93
2017-11-10T12:41:37.229Z,5.50
2017-11-10T12:44:05.096Z,5.78
2017-11-10T12:46:32.965Z,5.80
2017-11-10T12:49:00.831Z,5.05
2017-11-10T12:51:28.698Z,4.70
2017-11-10T12:53:56.566Z,5.87
2017-11-10T12:56:24.364Z,5.55
2017-11-10T12:58:53.017Z,5.95
2017-11-10T13:01:20.885Z,6.75
2017-11-10T13:03:48.753Z,6.05
2017-11-10T13:06:17.439Z,5.07
2017-11-10T13:08:45.306Z,5.93
2017-11-10T13:11:13.174Z,6.20
2017-11-10T13:13:41.042Z,5.15
2017-11-10T13:16:08.908Z,6.45
2017-11-10T13:18:36.784Z,5.55
2017-11-10T13:21:04.650Z,6.05
2017-11-10T13:23:32.514Z,5.60
2017-11-10T13:26:00.383Z,7.28
2017-11-10T13:28:28.250Z,6.60
2017-11-10T13:30:56.117Z,6.47
2017-11-10T13:33:23.982Z,6.05
2017-11-10T13:35:51.849Z,5.87
2017-11-10T13:38:19.714Z,6.35
2017-11-10T13:40:47.583Z,6.43
2017-11-10T13:43:15.457Z,6.53
2017-11-10T13:45:43.318Z,7.65
2017-11-10T13:48:11.126Z,6.70
2017-11-10T13:50:38.959Z,6.65
2017-11-10T13:53:07.634Z,7.37
2017-11-10T13:55:35.502Z,7.05
2017-11-10T13:58:03.370Z,6.32
2017-11-10T14:00:31.237Z,7.00
2017-11-10T14:02:59.105Z,7.55
2017-11-10T14:05:26.971Z,7.25
2017-11-10T14:07:54.736Z,7.10
2017-11-10T14:10:22.604Z,7.53
2017-11-10T14:12:50.476Z,7.40
2017-11-10T14:15:18.339Z,7.43
2017-11-10T14:17:46.206Z,6.55
2017-11-10T14:20:14.073Z,6.55
2017-11-10T14:22:41.940Z,6.70
2017-11-10T14:25:09.807Z,8.00
2017-11-10T14:27:37.676Z,6.60
2017-11-10T14:30:05.540Z,6.07
2017-11-10T14:32:33.409Z,7.20
2017-11-10T14:35:01.276Z,6.70
2017-11-10T14:37:29.143Z,6.43
2017-11-10T14:39:57.012Z,7.82
2017-11-10T14:42:24.807Z,6.10
2017-11-10T14:44:53.363Z,6.70
2017-11-10T14:47:21.231Z,6.50
2017-11-10T14:49:49.096Z,6.50
2017-11-10T14:52:16.963Z,6.18
2017-11-10T14:54:44.829Z,7.30
2017-11-10T14:57:12.697Z,6.05
2017-11-10T14:59:40.568Z,6.05
2017-11-10T15:02:08.435Z,6.30
2017-11-10T15:04:36.339Z,7.65
2017-11-10T15:07:04.167Z,6.57
2017-11-10T15:09:32.035Z,5.65
2017-11-10T15:11:59.903Z,5.90
2017-11-10T15:14:27.769Z,4.43
2017-11-10T15:16:55.635Z,4.60
2017-11-10T15:19:23.721Z,4.82
2017-11-10T15:21:52.395Z,4.57
2017-11-10T15:24:20.262Z,4.90
2017-11-10T15:26:48.129Z,4.60
2017-11-10T15:29:15.996Z,4.55
2017-11-10T15:31:43.863Z,9.93
2017-11-10T15:34:11.731Z,4.20
2017-11-10T15:36:39.598Z,3.60
2017-11-10T15:39:07.464Z,4.12
2017-11-10T15:41:35.344Z,3.50
2017-11-10T15:44:03.199Z,3.60
2017-11-10T15:46:31.066Z,3.45
2017-11-10T15:48:58.934Z,3.28
2017-11-10T15:51:26.801Z,2.80
2017-11-10T15:53:54.668Z,2.85
2017-11-10T15:56:22.535Z,2.75
2017-11-10T15:58:50.404Z,3.22
2017-11-10T16:01:18.271Z,2.92
2017-11-10T16:03:46.138Z,2.67
2017-11-10T16:06:14.004Z,3.08
2017-11-10T16:08:41.871Z,2.47
2017-11-10T16:11:09.743Z,2.50
2017-11-10T16:13:37.607Z,2.05
2017-11-10T16:16:05.473Z,3.55
2017-11-10T16:18:33.342Z,2.60
2017-11-10T16:21:01.208Z,2.50
2017-11-10T16:23:29.076Z,2.85
2017-11-10T16:25:56.944Z,3.72
2017-11-10T16:28:24.740Z,3.12
2017-11-10T16:30:53.395Z,2.37
2017-11-10T16:33:21.208Z,2.12
2017-11-10T16:35:49.027Z,2.28
2017-11-10T16:38:16.900Z,2.15
2017-11-10T16:40:44.770Z,1.90
2017-11-10T16:43:12.630Z,2.28
2017-11-10T16:45:40.497Z,2.15
2017-11-10T16:48:08.368Z,1.90
2017-11-10T16:50:36.235Z,2.25
2017-11-10T16:53:04.100Z,1.98
2017-11-10T16:55:31.969Z,2.10
2017-11-10T16:57:59.835Z,1.60
2017-11-10T17:00:27.699Z,1.80
2017-11-10T17:02:55.567Z,1.60
2017-11-10T17:05:23.433Z,8.30
2017-11-10T17:07:51.302Z,59.65
2017-11-10T17:10:19.170Z,15.32
2017-11-10T17:12:47.037Z,6.45
2017-11-10T17:15:14.904Z,16.55
2017-11-10T17:17:42.771Z,2.80
2017-11-10T17:20:10.637Z,2.45
2017-11-10T17:22:38.506Z,2.45
2017-11-10T17:25:06.373Z,3.67
2017-11-10T17:27:34.239Z,3.25
2017-11-10T17:30:02.110Z,3.10
2017-11-10T17:32:29.974Z,2.80
2017-11-10T17:34:57.841Z,2.75
2017-11-10T17:37:25.709Z,2.20
2017-11-10T17:39:53.580Z,2.53
2017-11-10T17:42:21.451Z,1.80
2017-11-10T17:44:49.310Z,2.10
2017-11-10T17:47:17.179Z,2.03
2017-11-10T17:49:45.049Z,2.70
2017-11-10T17:52:13.020Z,2.55
2017-11-10T17:54:40.882Z,2.25
2017-11-10T17:57:08.751Z,2.00
2017-11-10T17:59:36.618Z,2.00
2017-11-10T18:02:04.587Z,2.50
2017-11-10T18:04:32.457Z,1.60
2017-11-10T18:07:00.322Z,1.45
2017-11-10T18:09:28.294Z,1.40
2017-11-10T18:11:56.159Z,1.20
2017-11-10T18:14:24.026Z,6.20
2017-11-10T18:16:51.895Z,2.00
2017-11-10T18:19:19.761Z,1.98
2017-11-10T18:21:47.628Z,2.30
2017-11-10T18:24:15.597Z,2.58
2017-11-10T18:26:43.464Z,2.67
2017-11-10T18:29:11.331Z,2.70
2017-11-10T18:31:39.238Z,2.00
2017-11-10T18:34:07.886Z,2.45
2017-11-10T18:36:35.754Z,2.70
2017-11-10T18:39:03.728Z,3.10
2017-11-10T18:41:31.591Z,2.70
2017-11-10T18:43:59.458Z,2.85
2017-11-10T18:46:27.326Z,2.83
2017-11-10T18:48:56.956Z,3.00
2017-11-10T18:51:24.903Z,3.10
2017-11-10T18:53:52.770Z,3.90
2017-11-10T18:56:20.638Z,4.18
2017-11-10T18:58:48.505Z,3.00
2017-11-10T19:01:16.371Z,4.05
2017-11-10T19:03:44.240Z,3.20
2017-11-10T19:06:12.107Z,2.90
2017-11-10T19:08:39.974Z,3.00
2017-11-10T19:11:07.842Z,3.72
2017-11-10T19:13:35.709Z,3.10
2017-11-10T19:16:03.625Z,4.45
2017-11-10T19:18:31.548Z,4.30
2017-11-10T19:20:59.412Z,4.43
2017-11-10T19:23:27.280Z,5.00
2017-11-10T19:25:55.148Z,4.78
2017-11-10T19:28:23.016Z,4.40
2017-11-10T19:30:50.883Z,4.90
2017-11-10T19:33:18.757Z,4.80
2017-11-10T19:35:46.617Z,6.30
2017-11-10T19:38:14.485Z,4.53
2017-11-10T19:40:42.352Z,4.43
2017-11-10T19:43:10.220Z,3.95
2017-11-10T19:45:38.087Z,4.37
2017-11-10T19:48:05.954Z,4.70
2017-11-10T19:50:33.821Z,4.00
2017-11-10T19:53:01.688Z,10.75
2017-11-10T19:55:29.554Z,10.52
2017-11-10T19:57:57.429Z,7.55
2017-11-10T20:00:25.301Z,5.93
2017-11-10T20:02:53.262Z,6.70
2017-11-10T20:05:21.129Z,5.47
2017-11-10T20:07:49.003Z,6.30
2017-11-10T20:10:16.865Z,5.30
2017-11-10T20:12:44.733Z,5.20
2017-11-10T20:15:12.598Z,4.62
2017-11-10T20:17:40.465Z,5.87
2017-11-10T20:20:08.353Z,4.72
2017-11-10T20:22:37.018Z,4.97
2017-11-10T20:25:04.885Z,4.47
2017-11-10T20:27:32.754Z,5.40
2017-11-10T20:30:00.620Z,5.35
2017-11-10T20:32:28.496Z,6.10
2017-11-10T20:34:56.457Z,5.62
2017-11-10T20:37:24.331Z,4.80
2017-11-10T20:39:52.191Z,4.70
2017-11-10T20:42:20.059Z,4.95
2017-11-10T20:44:47.926Z,5.10
2017-11-10T20:47:15.794Z,4.47
2017-11-10T20:49:43.660Z,4.30
2017-11-10T20:52:11.528Z,4.80
2017-11-10T20:54:39.401Z,5.12
2017-11-10T20:57:07.263Z,4.93
2017-11-10T20:59:35.130Z,4.80
2017-11-10T21:02:02.993Z,4.57
2017-11-10T21:04:30.865Z,5.20
2017-11-10T21:06:58.732Z,4.10
2017-11-10T21:09:26.599Z,4.95
2017-11-10T21:11:54.466Z,5.57
2017-11-10T21:14:22.335Z,4.97
2017-11-10T21:16:50.201Z,4.82
2017-11-10T21:19:18.067Z,5.32
2017-11-10T21:21:45.938Z,4.28
2017-11-10T21:24:13.803Z,4.80
2017-11-10T21:26:41.669Z,6.18
2017-11-10T21:29:09.537Z,4.55
2017-11-10T21:31:37.404Z,4.45
2017-11-10T21:34:05.375Z,4.15
2017-11-10T21:36:33.242Z,4.60
2017-11-10T21:39:01.110Z,5.18
2017-11-10T21:41:28.976Z,4.07
2017-11-10T21:43:56.845Z,4.75
2017-11-10T21:46:24.710Z,4.12
2017-11-10T21:48:52.579Z,4.00
2017-11-10T21:51:20.446Z,3.10
2017-11-10T21:53:48.314Z,3.60
2017-11-10T21:56:16.181Z,3.67
2017-11-10T21:58:44.081Z,4.37
2017-11-10T22:01:12.735Z,3.97
2017-11-10T22:03:40.603Z,3.17
2017-11-10T22:06:08.469Z,3.80
2017-11-10T22:08:36.336Z,4.50
2017-11-10T22:11:04.204Z,4.25
2017-11-10T22:13:32.071Z,4.07
2017-11-10T22:15:59.937Z,4.43
2017-11-10T22:18:27.806Z,5.05
2017-11-10T22:20:55.673Z,4.70
2017-11-10T22:23:23.540Z,4.82
2017-11-10T22:25:51.408Z,4.30
2017-11-10T22:28:19.275Z,5.20
2017-11-10T22:30:47.108Z,5.30
2017-11-10T22:33:14.907Z,5.50
2017-11-10T22:35:42.775Z,3.70
2017-11-10T22:38:10.642Z,4.78
2017-11-10T22:40:38.516Z,4.78
2017-11-10T22:43:06.377Z,4.15
2017-11-10T22:45:34.254Z,4.00
2017-11-10T22:48:02.111Z,4.60
2017-11-10T22:50:29.982Z,4.60
2017-11-10T22:52:57.949Z,4.30
2017-11-10T22:55:25.816Z,4.00
2017-11-10T22:57:53.686Z,5.15
2017-11-10T23:00:21.552Z,4.95
2017-11-10T23:02:49.417Z,4.85
2017-11-10T23:05:17.285Z,4.10
2017-11-10T23:07:45.154Z,4.05
2017-11-10T23:10:13.020Z,3.95
2017-11-10T23:12:40.886Z,5.62
2017-11-10T23:15:08.761Z,4.45
2017-11-10T23:17:36.622Z,4.22
2017-11-10T23:20:04.501Z,5.00
2017-11-10T23:22:33.280Z,4.18
2017-11-10T23:25:01.146Z,5.18
2017-11-10T23:27:29.017Z,4.72
2017-11-10T23:29:56.906Z,5.30
2017-11-10T23:32:25.571Z,4.90
2017-11-10T23:34:53.438Z,4.60
2017-11-10T23:37:21.301Z,5.32
2017-11-10T23:39:49.168Z,5.28
2017-11-10T23:42:17.034Z,4.68
2017-11-10T23:44:44.902Z,4.97
2017-11-10T23:47:12.770Z,5.22
2017-11-10T23:49:40.641Z,3.78
2017-11-10T23:52:08.506Z,3.85
2017-11-10T23:54:36.372Z,4.90
2017-11-10T23:57:04.239Z,4.10
2017-11-10T23:59:32.106Z,4.65
